Time;durP1;ratioP1;P1;durP2;ratioP2;P2;SDS_P1;SDS_P2;PMS_P1;PMS_P2;Temp;Humidity;BMP_temperature;BMP_pressure;BME280_temperature;BME280_humidity;BME280_pressure;Samples;Min_cycle;Max_cycle;Signal;HPM_P1;HPM_P2
2023/03/04 00:00:46;;;;;;;25.02;11.00;;;1.50;1.00;;;;;;5050543;28;20281;-78
2023/03/04 00:03:14;;;;;;;24.48;10.85;;;1.50;1.00;;;;;;5071469;28;20167;-77
2023/03/04 00:06:13;;;;;;;24.80;10.85;;;1.40;1.00;;;;;;5072814;28;20175;-77
2023/03/04 00:09:13;;;;;;;21.35;10.73;;;1.50;1.00;;;;;;5062759;28;20182;-78
2023/03/04 00:11:39;;;;;;;23.02;10.95;;;1.40;1.00;;;;;;5067560;28;20199;-78
2023/03/04 00:14:08;;;;;;;25.93;11.73;;;1.40;1.00;;;;;;5076641;28;20246;-77
2023/03/04 00:16:44;;;;;;;21.60;11.57;;;1.40;1.00;;;;;;5077494;28;20171;-78
2023/03/04 00:19:14;;;;;;;22.83;10.90;;;1.30;1.00;;;;;;5077115;28;20183;-77
2023/03/04 00:22:14;;;;;;;21.67;11.27;;;1.40;1.00;;;;;;5076842;28;20175;-78
2023/03/04 00:25:14;;;;;;;23.73;11.05;;;1.40;1.00;;;;;;5076609;28;20537;-77
2023/03/04 00:27:57;;;;;;;26.08;10.88;;;1.40;1.00;;;;;;5063344;28;20230;-77
2023/03/04 00:30:43;;;;;;;24.05;11.15;;;1.30;1.00;;;;;;5073991;28;20179;-77
2023/03/04 00:33:44;;;;;;;28.20;11.68;;;1.30;1.00;;;;;;5077193;28;20210;-83
2023/03/04 00:36:44;;;;;;;23.42;12.13;;;1.40;1.00;;;;;;5059583;28;20276;-84
2023/03/04 00:39:43;;;;;;;22.13;10.80;;;1.40;1.00;;;;;;5053079;28;20187;-85
2023/03/04 00:45:44;;;;;;;28.17;10.88;;;1.30;1.00;;;;;;5076868;28;20194;-85
2023/03/04 00:48:15;;;;;;;28.55;10.15;;;1.20;1.00;;;;;;5076245;28;20171;-85
2023/03/04 00:50:44;;;;;;;25.10;11.30;;;1.20;1.00;;;;;;5052677;28;20266;-85
2023/03/04 00:53:44;;;;;;;23.30;10.50;;;1.20;1.00;;;;;;5077248;28;20226;-85
2023/03/04 00:59:45;;;;;;;21.80;11.52;;;1.20;1.00;;;;;;5062961;28;20186;-85
2023/03/04 01:02:44;;;;;;;26.42;12.15;;;1.10;1.00;;;;;;5051172;28;20199;-85
2023/03/04 01:05:14;;;;;;;29.83;13.43;;;1.10;1.00;;;;;;5059007;28;20186;-84
2023/03/04 01:07:44;;;;;;;30.15;11.80;;;1.10;1.00;;;;;;5058573;28;20198;-85
2023/03/04 01:10:14;;;;;;;26.15;11.75;;;1.00;1.00;;;;;;5046864;28;20183;-85
2023/03/04 01:13:14;;;;;;;25.85;12.70;;;1.00;1.00;;;;;;5041336;28;20382;-84
2023/03/04 01:15:50;;;;;;;28.38;12.23;;;1.00;1.00;;;;;;5058879;28;20269;-84
2023/03/04 01:18:46;;;;;;;24.27;12.00;;;0.80;1.00;;;;;;5075638;28;20228;-78
2023/03/04 01:21:14;;;;;;;24.48;11.90;;;0.80;1.00;;;;;;5075692;28;20175;-78
2023/03/04 01:23:44;;;;;;;30.75;12.48;;;0.70;1.00;;;;;;5075037;28;20178;-77
2023/03/04 01:26:44;;;;;;;20.67;10.90;;;0.70;1.00;;;;;;5075322;28;20724;-78
2023/03/04 01:29:44;;;;;;;25.95;12.30;;;0.60;1.00;;;;;;5074213;28;20229;-77
2023/03/04 01:32:14;;;;;;;24.67;11.00;;;0.60;1.00;;;;;;5075931;28;20210;-78
2023/03/04 01:34:44;;;;;;;;;;;0.50;1.00;;;;;;5075767;28;20167;-78
2023/03/04 01:37:14;;;;;;;;;;;0.50;1.00;;;;;;5075531;28;20367;-78
2023/03/04 01:39:44;;;;;;;;;;;0.40;1.00;;;;;;5054405;28;19909;-77
2023/03/04 01:42:17;;;;;;;;;;;0.30;1.00;;;;;;5074119;28;19911;-78
2023/03/04 01:45:13;;;;;;;;;;;0.20;1.00;;;;;;5075690;28;20004;-78
2023/03/04 01:47:47;;;;;;;;;;;0.20;1.00;;;;;;5075879;28;19993;-84
2023/03/04 01:50:38;;;;;;;;;;;0.10;1.00;;;;;;5060149;28;19911;-85
2023/03/04 01:53:16;;;;;;;;;;;0.00;1.00;;;;;;5058398;28;19962;-85
2023/03/04 01:56:13;;;;;;;;;;;-0.10;1.00;;;;;;5075908;28;19905;-85
2023/03/04 01:59:14;;;;;;;;;;;-0.20;1.00;;;;;;5063577;28;19915;-84
2023/03/04 02:02:13;;;;;;;;;;;-0.30;1.00;;;;;;5052921;28;19912;-78
2023/03/04 02:04:44;;;;;;;;;;;-0.40;1.00;;;;;;5071997;28;19950;-78
2023/03/04 02:07:14;;;;;;;;;;;-0.50;1.00;;;;;;5075011;28;19912;-77
2023/03/04 02:09:44;;;;;;;;;;;-0.60;1.00;;;;;;5075103;28;19911;-77
2023/03/04 02:12:09;;;;;;;;;;;-0.60;1.00;;;;;;5074725;28;19912;-78
2023/03/04 02:14:44;;;;;;;;;;;-0.80;1.00;;;;;;5075006;28;19916;-78
2023/03/04 02:17:38;;;;;;;;;;;-0.80;1.00;;;;;;5074903;28;20360;-78
2023/03/04 02:20:13;;;;;;;;;;;-0.80;1.00;;;;;;5060448;28;19912;-78
2023/03/04 02:22:48;;;;;;;;;;;-0.90;1.00;;;;;;5069540;28;19916;-77
2023/03/04 02:25:44;;;;;;;;;;;-0.90;1.00;;;;;;5067535;28;19912;-78
2023/03/04 02:28:14;;;;;;;;;;;-1.00;1.00;;;;;;5074775;28;19916;-78
2023/03/04 02:31:13;;;;;;;;;;;-1.00;1.00;;;;;;5072462;28;19904;-77
2023/03/04 02:33:44;;;;;;;;;;;-1.10;1.00;;;;;;5074825;28;19908;-77
2023/03/04 02:36:14;;;;;;;;;;;-1.10;1.00;;;;;;5073480;28;19965;-77
2023/03/04 02:38:44;;;;;;;;;;;-1.10;1.00;;;;;;5052579;28;20260;-78
2023/03/04 02:41:15;;;;;;;;;;;-1.20;1.00;;;;;;5064387;28;19912;-78
2023/03/04 02:43:45;;;;;;;;;;;-1.20;1.00;;;;;;5074466;28;19904;-77
2023/03/04 02:46:14;;;;;;;;;;;-1.10;1.00;;;;;;5074317;28;19908;-77
2023/03/04 02:48:44;;;;;;;;;;;-1.10;1.00;;;;;;5074712;28;19924;-77
2023/03/04 02:51:14;;;;;;;;;;;-1.00;1.00;;;;;;5066081;28;19955;-77
2023/03/04 02:53:44;;;;;;;;;;;-0.90;1.00;;;;;;5073762;28;19995;-78
2023/03/04 02:56:14;;;;;;;;;;;-0.90;1.00;;;;;;5073697;28;20003;-77
2023/03/04 02:58:44;;;;;;;;;;;-0.70;1.00;;;;;;5074349;28;19904;-78
2023/03/04 03:01:14;;;;;;;;;;;-0.60;1.00;;;;;;5073951;28;19913;-77
2023/03/04 03:04:13;;;;;;;;;;;-0.60;1.00;;;;;;5075221;28;19911;-84
2023/03/04 03:06:44;;;;;;;;;;;-0.40;1.00;;;;;;5057069;28;19908;-84
2023/03/04 03:09:14;;;;;;;;;;;-0.40;1.00;;;;;;5068908;28;19908;-84
2023/03/04 03:11:39;;;;;;;;;;;-0.40;1.00;;;;;;5074620;28;19915;-83
2023/03/04 03:14:14;;;;;;;;;;;-0.40;1.00;;;;;;5074662;28;20301;-84
2023/03/04 03:16:44;;;;;;;;;;;-0.30;1.00;;;;;;5063098;28;19963;-85
2023/03/04 03:19:14;;;;;;;;;;;-0.40;1.00;;;;;;5074387;28;19987;-78
2023/03/04 03:21:50;;;;;;;;;;;-0.40;1.00;;;;;;5073668;28;19904;-78
2023/03/04 03:24:44;;;;;;;;;;;-0.40;1.00;;;;;;5073964;28;19911;-77
2023/03/04 03:27:14;;;;;;;;;;;-0.40;1.00;;;;;;5060510;28;20322;-78
2023/03/04 03:29:44;;;;;;;;;;;-0.40;1.00;;;;;;5073788;28;19905;-77
2023/03/04 03:32:14;;;;;;;;;;;-0.50;1.00;;;;;;5074319;28;19904;-83
2023/03/04 03:34:44;;;;;;;;;;;-0.50;1.00;;;;;;5074636;28;19928;-84
2023/03/04 03:40:14;;;;;;;;;;;-0.40;1.00;;;;;;5070451;28;19927;-85
2023/03/04 03:42:44;;;;;;;;;;;-0.40;1.00;;;;;;5056715;28;19947;-84
2023/03/04 03:45:14;;;;;;;;;;;-0.40;1.00;;;;;;5056231;28;19912;-85
2023/03/04 03:47:44;;;;;;;;;;;-0.30;1.00;;;;;;5045695;28;19962;-85
2023/03/04 03:50:14;;;;;;;;;;;-0.20;1.00;;;;;;5059121;28;19904;-84
2023/03/04 03:53:14;;;;;;;;;;;-0.20;1.00;;;;;;5053103;28;20275;-85
2023/03/04 03:55:44;;;;;;;;;;;-0.10;1.00;;;;;;5054929;28;19908;-85
2023/03/04 03:58:14;;;;;;;;;;;0.00;1.00;;;;;;5053032;28;19963;-84
2023/03/04 04:00:44;;;;;;;;;;;0.10;1.00;;;;;;5043771;28;20011;-85
2023/03/04 04:03:14;;;;;;;;;;;0.10;1.00;;;;;;5056839;28;19959;-85
2023/03/04 04:09:14;;;;;;;;;;;0.20;1.00;;;;;;5061558;28;19916;-85
2023/03/04 04:11:39;;;;;;;;;;;0.40;1.00;;;;;;5043377;28;19912;-84
2023/03/04 04:14:05;;;;;;;;;;;0.40;1.00;;;;;;5056391;28;19913;-85
2023/03/04 04:16:44;;;;;;;;;;;0.40;1.00;;;;;;5058644;28;19909;-85
2023/03/04 04:19:17;;;;;;;;;;;0.50;1.00;;;;;;5067147;28;19904;-78
2023/03/04 04:21:44;;;;;;;;;;;0.50;1.00;;;;;;5063741;28;20275;-78
2023/03/04 04:24:44;;;;;;;;;;;0.60;1.00;;;;;;5073315;28;20343;-78
2023/03/04 04:27:14;;;;;;;;;;;0.70;1.00;;;;;;5073435;28;19908;-78
2023/03/04 04:29:44;;;;;;;;;;;0.80;1.00;;;;;;5073188;28;19905;-78
2023/03/04 04:32:14;;;;;;;;;;;0.90;1.00;;;;;;5073333;28;20495;-78
2023/03/04 04:34:44;;;;;;;;;;;0.80;1.00;;;;;;5073554;28;19911;-84
2023/03/04 04:37:14;;;;;;;;;;;0.90;1.00;;;;;;5063326;28;19908;-84
2023/03/04 04:40:14;;;;;;;;;;;1.00;1.00;;;;;;5060917;28;19905;-84
2023/03/04 04:43:14;;;;;;;;;;;1.10;1.00;;;;;;5036337;28;19957;-85
2023/03/04 04:45:44;;;;;;;;;;;1.10;1.00;;;;;;5046957;28;20011;-85
2023/03/04 04:48:14;;;;;;;;;;;1.10;1.00;;;;;;5052644;28;19944;-78
2023/03/04 04:50:44;;;;;;;;;;;1.20;1.00;;;;;;5073362;28;20019;-78
2023/03/04 04:53:14;;;;;;;;;;;1.20;1.00;;;;;;5073289;28;19904;-78
2023/03/04 04:55:44;;;;;;;;;;;1.20;1.00;;;;;;5063700;28;19905;-78
2023/03/04 04:58:14;;;;;;;;;;;1.30;1.00;;;;;;5070528;28;19904;-78
2023/03/04 05:00:44;;;;;;;;;;;1.40;1.00;;;;;;5065655;28;19952;-78
2023/03/04 05:03:14;;;;;;;;;;;1.40;1.00;;;;;;5073503;28;19957;-79
2023/03/04 05:05:39;;;;;;;;;;;1.40;1.00;;;;;;5058362;28;19904;-78
2023/03/04 05:08:14;;;;;;;;;;;1.50;1.00;;;;;;5071107;28;19958;-78
2023/03/04 05:10:44;;;;;;;;;;;1.40;1.00;;;;;;5069529;28;19954;-77
2023/03/04 05:13:14;;;;;;;;;;;1.40;1.00;;;;;;5076465;28;19912;-78
2023/03/04 05:15:44;;;;;;;;;;;1.50;1.00;;;;;;5075480;28;20007;-78
2023/03/04 05:18:14;;;;;;;;;;;1.50;1.00;;;;;;5065445;28;19909;-84
2023/03/04 05:20:44;;;;;;;;;;;1.40;1.00;;;;;;5059152;28;19904;-85
2023/03/04 05:23:44;;;;;;;;;;;1.50;1.00;;;;;;5059294;28;19953;-85
2023/03/04 05:26:15;;;;;;;;;;;1.60;1.00;;;;;;5058936;28;19908;-85
2023/03/04 05:28:44;;;;;;;;;;;1.60;1.00;;;;;;5058965;28;19904;-85
2023/03/04 05:31:14;;;;;;;;;;;1.60;1.00;;;;;;5044936;28;19905;-85
2023/03/04 05:33:44;;;;;;;;;;;1.60;1.00;;;;;;5040707;28;19912;-85
2023/03/04 05:36:14;;;;;;;;;;;1.60;1.00;;;;;;5054912;28;19909;-85
2023/03/04 05:41:47;;;;;;;;;;;1.70;1.00;;;;;;5065254;28;20275;-85
2023/03/04 05:44:14;;;;;;;;;;;1.70;1.00;;;;;;5063574;28;19905;-85
2023/03/04 05:50:02;;;;;;;;;;;1.80;1.00;;;;;;5072900;28;19933;-78
2023/03/04 05:58:57;;;;;;;;;;;1.80;1.00;;;;;;5075564;28;20111;-92
2023/03/04 06:04:38;;;;;;;;;;;1.90;1.00;;;;;;5076173;28;19911;-79
2023/03/04 06:13:14;;;;;;;;;;;1.90;1.00;;;;;;5071958;28;20287;-76
2023/03/04 06:15:44;;;;;;;;;;;1.90;1.00;;;;;;5075036;28;19993;-77
2023/03/04 06:18:14;;;;;;;;;;;2.00;1.00;;;;;;5076626;28;19904;-78
2023/03/04 06:20:44;;;;;;;;;;;2.00;1.00;;;;;;5076022;28;20375;-89
2023/03/04 06:23:14;;;;;;;;;;;2.00;1.00;;;;;;5057430;28;19974;-83
2023/03/04 06:25:44;;;;;;;;;;;2.10;1.00;;;;;;5046109;28;19915;-84
2023/03/04 06:28:14;;;;;;;;;;;2.10;1.00;;;;;;5043552;28;19908;-80
2023/03/04 06:31:14;;;;;;;;;;;2.10;1.00;;;;;;5072540;28;20001;-80
2023/03/04 06:33:45;;;;;;;;;;;2.10;1.00;;;;;;5074953;28;19962;-79
2023/03/04 06:36:14;;;;;;;;;;;2.20;1.00;;;;;;5075073;28;19904;-79
2023/03/04 06:38:56;;;;;;;;;;;2.20;1.00;;;;;;5074800;28;19904;-88
2023/03/04 06:41:44;;;;;;;;;;;2.20;1.00;;;;;;5088412;28;19912;-83
2023/03/04 06:44:14;;;;;;;;;;;2.20;1.00;;;;;;5056593;28;19916;-83
2023/03/04 06:46:44;;;;;;;;;;;2.30;1.00;;;;;;5056620;28;19998;-83
2023/03/04 06:49:44;;;;;;;;;;;2.40;1.00;;;;;;5056706;28;19947;-84
2023/03/04 06:52:44;;;;;;;;;;;2.40;1.00;;;;;;5056639;28;19962;-84
2023/03/04 06:58:12;;;;;;;;;;;2.50;1.00;;;;;;5074779;28;19911;-84
2023/03/04 07:00:44;;;;;;;;;;;2.50;1.00;;;;;;5056364;28;19905;-83
2023/03/04 07:03:14;;;;;;;;;;;2.50;1.00;;;;;;5056902;28;19909;-84
2023/03/04 07:05:44;;;;;;;;;;;2.60;1.00;;;;;;5057120;28;19904;-84
2023/03/04 07:08:44;;;;;;;;;;;2.70;1.00;;;;;;5056655;28;19908;-84
2023/03/04 07:11:14;;;;;;;;;;;2.80;1.00;;;;;;5039213;28;20405;-85
2023/03/04 07:13:44;;;;;;;;;;;2.80;1.00;;;;;;5072725;28;19966;-84
2023/03/04 07:16:16;;;;;;;;;;;2.90;1.00;;;;;;5056507;28;19908;-85
2023/03/04 07:18:44;;;;;;;;;;;3.00;1.00;;;;;;5056622;28;20351;-84
2023/03/04 07:24:12;;;;;;;;;;;3.10;1.00;;;;;;5074437;28;19912;-84
2023/03/04 07:26:44;;;;;;;;;;;3.20;1.00;;;;;;5056218;28;19908;-84
2023/03/04 07:29:14;;;;;;;;;;;3.20;1.00;;;;;;5058358;28;19952;-84
2023/03/04 07:32:14;;;;;;;;;;;3.30;1.00;;;;;;5056178;28;19905;-85
2023/03/04 07:34:44;;;;;;;;;;;3.20;1.00;;;;;;5054543;28;19905;-85
2023/03/04 07:37:14;;;;;;;;;;;3.30;1.00;;;;;;5051709;28;19911;-88
2023/03/04 07:42:48;;;;;;;;;;;3.50;1.00;;;;;;5074211;28;20500;-88
2023/03/04 07:45:32;;;;;;;;;;;3.40;1.00;;;;;;5047471;28;19905;-88
2023/03/04 07:48:14;;;;;;;;;;;3.60;1.00;;;;;;5059240;28;19913;-87
2023/03/04 07:50:44;;;;;;;;;;;3.70;1.00;;;;;;5043008;28;19915;-88
2023/03/04 07:53:44;;;;;;;;;;;3.80;1.00;;;;;;5073860;28;19904;-88
2023/03/04 07:56:16;;;;;;;;;;;3.90;1.00;;;;;;5057104;28;19905;-88
2023/03/04 07:58:41;;;;;;;;;;;3.90;1.00;;;;;;5053493;28;19905;-88
2023/03/04 08:01:24;;;;;;;;;;;4.00;1.00;;;;;;5051058;28;20370;-88
2023/03/04 08:04:14;;;;;;;;;;;4.10;1.00;;;;;;5059798;28;19905;-88
2023/03/04 08:06:44;;;;;;;;;;;4.20;1.00;;;;;;5043442;28;19922;-84
2023/03/04 08:12:12;;;;;;;;;;;4.20;1.00;;;;;;5073698;28;19919;-85
2023/03/04 08:14:44;;;;;;;;;;;4.40;1.00;;;;;;5069416;28;19909;-87
2023/03/04 08:20:14;;;;;;;;;;;4.40;1.00;;;;;;5074449;28;19911;-89
2023/03/04 08:22:44;;;;;;;;;;;4.60;1.00;;;;;;5056168;28;20389;-82
2023/03/04 08:25:14;;;;;;;;;;;4.60;1.00;;;;;;5049495;28;19916;-82
2023/03/04 08:27:44;;;;;;;;;;;4.70;1.00;;;;;;5065259;28;19919;-81
2023/03/04 08:30:44;;;;;;;;;;;4.80;1.00;;;;;;5073285;28;19915;-82
2023/03/04 08:33:14;;;;;;;;;;;4.90;1.00;;;;;;5074610;28;19904;-82
2023/03/04 08:35:44;;;;;;;;;;;4.90;1.00;;;;;;5070073;28;19970;-82
2023/03/04 08:38:14;;;;;;;;;;;5.00;1.00;;;;;;5060136;28;20043;-82
2023/03/04 08:40:44;;;;;;;;;;;5.10;1.00;;;;;;5076804;28;19911;-82
2023/03/04 08:43:10;;;;;;;;;;;5.10;1.00;;;;;;5073059;28;19916;-78
2023/03/04 08:45:44;;;;;;;;;;;5.20;1.00;;;;;;5076172;28;19908;-79
2023/03/04 08:48:32;;;;;;;;;;;5.20;1.00;;;;;;5063192;28;19909;-80
2023/03/04 08:54:26;;;;;;;;;;;6.80;1.00;;;;;;5074781;28;19910;-81
2023/03/04 09:00:14;;;;;;;;;;;7.80;1.00;;;;;;5073431;28;20580;-80
2023/03/04 09:02:39;;;;;;;;;;;8.20;1.00;;;;;;5075842;28;19904;-80
2023/03/04 09:05:14;;;;;;;;;;;8.50;1.00;;;;;;5067881;28;19911;-80
2023/03/04 09:08:14;;;;;;;;;;;8.70;1.00;;;;;;5068178;28;19916;-80
2023/03/04 09:11:02;;;;;;;;;;;8.90;1.00;;;;;;5069539;28;19904;-81
2023/03/04 09:16:44;;;;;;;;;;;8.90;1.00;;;;;;5063897;28;19931;-79
2023/03/04 09:19:44;;;;;;;;;;;9.00;1.00;;;;;;5075839;28;19939;-80
2023/03/04 09:25:14;;;;;;;;;;;9.00;1.00;;;;;;5061252;28;19911;-79
2023/03/04 09:27:44;;;;;;;;;;;9.10;1.00;;;;;;5075110;28;19913;-78
2023/03/04 09:33:13;;;;;;;;;;;8.90;1.00;;;;;;5067423;28;19911;-78
2023/03/04 09:35:44;;;;;;;;;;;8.70;1.00;;;;;;5075907;28;19905;-79
2023/03/04 09:38:44;;;;;;;;;;;8.50;1.00;;;;;;5076408;28;19904;-79
2023/03/04 09:44:44;;;;;;;;;;;8.20;1.00;;;;;;5074690;28;19916;-78
2023/03/04 09:50:14;;;;;;;;;;;8.00;1.00;;;;;;5075649;28;19912;-79
2023/03/04 09:53:14;;;;;;;;;;;7.90;1.00;;;;;;5076307;28;19905;-79
2023/03/04 09:58:52;;;;;;;;;;;7.80;1.00;;;;;;5064223;28;20283;-89
2023/03/04 10:01:44;;;;;;;;;;;7.70;1.00;;;;;;5058406;28;19937;-89
2023/03/04 10:13:31;;;;;;;;;;;7.30;1.00;;;;;;5064775;28;19951;-91
2023/03/04 10:19:14;;;;;;;;;;;7.50;1.00;;;;;;5075886;28;19953;-91
2023/03/04 10:22:14;;;;;;;;;;;7.40;1.00;;;;;;5058161;28;19940;-91
2023/03/04 10:25:02;;;;;;;;;;;7.40;1.00;;;;;;5046272;28;19904;-90
2023/03/04 10:30:50;;;;;;;;;;;7.60;1.00;;;;;;5075420;28;19915;-89
2023/03/04 10:33:44;;;;;;;;;;;7.60;1.00;;;;;;5062138;28;19975;-82
2023/03/04 10:39:28;;;;;;;;;;;7.80;1.00;;;;;;5071562;28;20004;-82
2023/03/04 10:44:58;;;;;;;;;;;8.00;1.00;;;;;;5063310;28;19915;-82
2023/03/04 10:47:33;;;;;;;;;;;8.00;1.00;;;;;;5074624;28;19908;-82
2023/03/04 10:50:21;;;;;;;;;;;8.00;1.00;;;;;;5072977;28;20348;-82
2023/03/04 10:52:52;;;;;;;;;;;8.20;1.00;;;;;;5065226;28;19912;-82
2023/03/04 10:55:44;;;;;;;;;;;8.20;1.00;;;;;;5056266;28;20325;-83
2023/03/04 10:58:32;;;;;;;;;;;8.40;1.00;;;;;;5074142;28;19904;-84
2023/03/04 11:04:32;;;;;;;;;;;8.50;1.00;;;;;;5073341;28;19911;-83
2023/03/04 11:10:17;;;;;;;;;;;8.60;1.00;;;;;;5064683;28;19911;-83
2023/03/04 11:16:14;;;;;;;;;;;8.60;1.00;;;;;;5069117;28;19908;-82
2023/03/04 11:19:14;;;;;;;;;;;8.50;1.00;;;;;;5067430;28;19904;-82
2023/03/04 11:22:14;;;;;;;;;;;8.50;1.00;;;;;;5036306;28;19943;-81
2023/03/04 11:24:49;;;;;;;;;;;8.60;1.00;;;;;;5061791;28;19936;-82
2023/03/04 11:27:21;;;;;;;;;;;8.50;1.00;;;;;;5066318;28;19934;-84
2023/03/04 11:30:14;;;;;;;;;;;8.50;1.00;;;;;;5066332;28;20003;-84
2023/03/04 11:33:14;;;;;;;;;;;8.30;1.00;;;;;;5049102;28;19908;-84
2023/03/04 11:36:14;;;;;;;;;;;8.00;1.00;;;;;;5036885;28;20063;-84
2023/03/04 11:39:14;;;;;;;;;;;8.00;1.00;;;;;;5036583;28;19940;-84
2023/03/04 11:44:44;;;;;;;;;;;8.00;1.00;;;;;;5073706;28;19912;-82
2023/03/04 11:50:44;;;;;;;;;;;7.80;1.00;;;;;;5062486;28;19923;-80
2023/03/04 11:53:14;;;;;;;;;;;8.10;1.00;;;;;;5060417;28;19971;-81
2023/03/04 11:56:14;;;;;;;;;;;8.10;1.00;;;;;;5061742;28;19904;-82
2023/03/04 12:02:14;;;;;;;;;;;8.30;1.00;;;;;;5074279;28;19912;-84
2023/03/04 12:05:02;;;;;;;;;;;8.40;1.00;;;;;;5053431;28;19908;-84
2023/03/04 12:10:49;;;;;;;;;;;8.60;1.00;;;;;;5068932;28;19912;-84
2023/03/04 12:13:38;;;;;;;;;;;8.80;1.00;;;;;;5056512;28;19912;-82
2023/03/04 12:16:19;;;;;;;;;;;8.90;1.00;;;;;;5062476;28;19909;-82
2023/03/04 12:19:14;;;;;;;;;;;8.90;1.00;;;;;;5074572;28;19916;-82
2023/03/04 12:25:14;;;;;;;;;;;8.60;1.00;;;;;;5062194;28;19916;-82
2023/03/04 12:40:14;;;;;;;;;;;8.80;1.00;;;;;;5070387;28;19963;-83
2023/03/04 12:43:14;;;;;;;;;;;8.90;1.00;;;;;;5069233;28;19914;-85
2023/03/04 12:46:14;;;;;;;;;;;8.90;1.00;;;;;;5059398;28;19909;-85
2023/03/04 12:49:15;;;;;;;;;;;8.90;1.00;;;;;;5059419;28;19912;-84
2023/03/04 12:52:15;;;;;;;;;;;9.10;1.00;;;;;;5044103;28;19961;-88
2023/03/04 12:55:14;;;;;;;;;;;9.40;1.00;;;;;;5056676;28;19908;-88
2023/03/04 12:57:44;;;;;;;;;;;9.80;1.00;;;;;;5064137;28;19923;-81
2023/03/04 13:00:34;;;;;;;;;;;9.90;1.00;;;;;;5061543;28;19989;-80
2023/03/04 13:09:14;;;;;;;;;;;10.10;1.00;;;;;;5028875;28;19968;-80
2023/03/04 13:11:42;;;;;;;;;;;9.90;1.00;;;;;;5003728;28;19916;-80
2023/03/04 13:14:16;;;;;;;;;;;9.90;1.00;;;;;;5014662;28;19913;-81
2023/03/04 13:16:57;;;;;;;;;;;9.90;1.00;;;;;;5009081;28;19944;-80
2023/03/04 13:25:50;;;;;;;;;;;10.00;1.00;;;;;;4997373;28;19912;-81
2023/03/04 13:28:35;;;;;;;;;;;9.90;1.00;;;;;;5014629;28;20000;-80
2023/03/04 13:31:16;;;;;;;;;;;9.70;1.00;;;;;;5005865;28;19918;-81
2023/03/04 13:33:46;;;;;;;;;;;9.40;1.00;;;;;;4997808;28;20427;-82
2023/03/04 13:39:22;;;;;;;;;;;9.60;1.00;;;;;;5010856;28;19916;-81
2023/03/04 13:42:14;;;;;;;;;;;9.50;1.00;;;;;;5075745;28;19935;-81
2023/03/04 13:44:44;;;;;;;;;;;9.70;1.00;;;;;;5076061;28;19911;-82
2023/03/04 13:47:15;;;;;;;;;;;9.50;1.00;;;;;;5075795;28;20310;-81
2023/03/04 13:49:44;;;;;;;;;;;9.20;1.00;;;;;;5061478;28;19909;-74
2023/03/04 13:52:32;;;;;;;;;;;9.20;1.00;;;;;;5063744;28;20397;-74
2023/03/04 13:58:34;;;;;;;;;;;9.10;1.00;;;;;;5063002;28;19954;-84
2023/03/04 14:01:30;;;;;;;;;;;8.80;1.00;;;;;;4994616;28;19913;-84
2023/03/04 14:04:14;;;;;;;;;;;8.60;1.00;;;;;;4992469;28;19909;-84
2023/03/04 14:07:14;;;;;;;;;;;8.60;1.00;;;;;;4994386;28;20060;-84
2023/03/04 14:10:14;;;;;;;;;;;8.90;1.00;;;;;;4994525;28;19918;-84
2023/03/04 14:13:14;;;;;;;;;;;8.90;1.00;;;;;;4994594;28;19917;-83
2023/03/04 14:15:52;;;;;;;;;;;8.80;1.00;;;;;;4978298;28;19914;-85
2023/03/04 14:18:32;;;;;;;;;;;8.70;1.00;;;;;;4992765;28;20365;-84
2023/03/04 14:33:17;;;;;;;;;;;9.00;1.00;;;;;;4993852;28;20006;-84
2023/03/04 14:36:14;;;;;;;;;;;9.10;1.00;;;;;;5003752;28;20384;-84
2023/03/04 14:44:47;;;;;;;;;;;9.10;1.00;;;;;;5057673;28;19916;-75
2023/03/04 14:47:32;;;;;;;;;;;8.90;1.00;;;;;;5072479;28;19908;-74
2023/03/04 14:50:04;;;;;;;;;;;8.80;1.00;;;;;;5074577;28;19908;-75
2023/03/04 14:52:32;;;;;;;;;;;8.80;1.00;;;;;;5061928;28;20339;-75
2023/03/04 14:55:00;;;;;;;;;;;8.80;1.00;;;;;;5073699;28;19955;-75
2023/03/04 14:57:28;;;;;;;;;;;8.60;1.00;;;;;;5075060;28;19904;-76
2023/03/04 15:00:12;;;;;;;;;;;8.50;1.00;;;;;;5073677;28;19992;-74
2023/03/04 15:02:38;;;;;;;;;;;8.50;1.00;;;;;;5065205;28;19913;-74
2023/03/04 15:05:10;;;;;;;;;;;8.50;1.00;;;;;;5073865;28;19909;-75
2023/03/04 15:08:05;;;;;;;;;;;8.40;1.00;;;;;;5062152;28;19912;-75
2023/03/04 15:10:44;;;;;;;;;;;8.30;1.00;;;;;;5066600;28;19904;-82
2023/03/04 15:13:14;;;;;;;;;;;8.30;1.00;;;;;;5074326;28;19912;-76
2023/03/04 15:16:08;;;;;;;;;;;8.30;1.00;;;;;;5064924;28;19915;-75
2023/03/04 15:18:34;;;;;;;;;;;8.20;1.00;;;;;;5067523;28;19988;-76
2023/03/04 15:21:00;;;;;;;;;;;8.20;1.00;;;;;;5067704;28;20340;-76
2023/03/04 15:23:44;;;;;;;;;;;8.10;1.00;;;;;;5069462;28;19908;-79
2023/03/04 15:26:44;;;;;;;;;;;7.90;1.00;;;;;;5055690;28;19959;-77
2023/03/04 15:29:38;;;;;;;;;;;7.90;1.00;;;;;;5072525;28;19918;-85
2023/03/04 15:32:14;;;;;;;;;;;7.80;1.00;;;;;;5069695;28;19908;-82
2023/03/04 15:35:14;;;;;;;;;;;7.90;1.00;;;;;;5051949;28;20637;-81
2023/03/04 15:37:45;;;;;;;;;;;7.90;1.00;;;;;;5059779;28;19908;-81
2023/03/04 15:40:22;;;;;;;;;;;7.90;1.00;;;;;;5051059;28;19911;-83
2023/03/04 15:49:14;;;;;;;;;;;8.00;1.00;;;;;;5073072;28;20398;-81
2023/03/04 15:51:44;;;;;;;;;;;8.00;1.00;;;;;;5074214;28;19905;-83
2023/03/04 15:54:15;;;;;;;;;;;8.00;1.00;;;;;;5053998;28;19908;-82
2023/03/04 15:56:44;;;;;;;;;;;8.10;1.00;;;;;;5048576;28;20272;-83
2023/03/04 16:02:38;;;;;;;;;;;8.00;1.00;;;;;;5066128;28;19912;-82
2023/03/04 16:05:15;;;;;;;;;;;8.10;1.00;;;;;;5044237;28;19908;-83
2023/03/04 16:07:45;;;;;;;;;;;8.10;1.00;;;;;;5066527;28;20260;-82
2023/03/04 16:10:14;;;;;;;;;;;8.00;1.00;;;;;;5051943;28;21338;-82
2023/03/04 16:12:44;;;;;;;;;;;7.90;1.00;;;;;;5060520;28;20309;-82
2023/03/04 16:15:26;;;;;;;;;;;8.00;1.00;;;;;;5042234;28;19917;-77
2023/03/04 16:18:09;;;;;;;;;;;8.00;1.00;;;;;;5073186;28;20309;-77
2023/03/04 16:20:46;;;;;;;;;;;7.90;1.00;;;;;;5073451;28;20366;-78
2023/03/04 16:26:16;;;;;;;;;;;7.80;1.00;;;;;;5071024;28;19970;-77
2023/03/04 16:28:44;;;;;;;;;;;7.80;1.00;;;;;;5071055;28;19916;-77
2023/03/04 16:31:14;;;;;;;;;;;7.70;1.00;;;;;;5063254;28;19909;-76
2023/03/04 16:33:45;;;;;;;;;;;7.70;1.00;;;;;;5070733;28;19904;-78
2023/03/04 16:36:17;;;;;;;;;;;7.70;1.00;;;;;;5073109;28;19911;-77
2023/03/04 16:38:44;;;;;;;;;;;7.60;1.00;;;;;;5073603;28;20251;-79
2023/03/04 16:41:15;;;;;;;;;;;7.70;1.00;;;;;;5073677;28;19905;-78
2023/03/04 16:43:44;;;;;;;;;;;7.60;1.00;;;;;;5068020;28;20371;-84
2023/03/04 16:46:44;;;;;;;;;;;7.50;1.00;;;;;;5064910;28;20008;-84
2023/03/04 16:49:44;;;;;;;;;;;7.60;1.00;;;;;;5064955;28;20351;-84
2023/03/04 16:55:18;;;;;;;;;;;7.40;1.00;;;;;;5056640;28;19951;-84
2023/03/04 17:00:46;;;;;;;;;;;7.40;1.00;;;;;;5076974;28;20386;-77
2023/03/04 17:03:14;;;;;;;;;;;7.40;1.00;;;;;;5076560;28;19904;-77
2023/03/04 17:06:14;;;;;;;;;;;7.40;1.00;;;;;;5073954;28;19999;-77
2023/03/04 17:08:44;;;;;;;;;;;7.30;1.00;;;;;;5067434;28;19908;-78
2023/03/04 17:11:15;;;;;;;;;;;7.40;1.00;;;;;;5076764;28;20007;-77
2023/03/04 17:13:44;;;;;;;;;;;7.40;1.00;;;;;;5077069;28;20054;-78
2023/03/04 17:16:14;;;;;;;;;;;7.40;1.00;;;;;;5076764;28;19910;-77
2023/03/04 17:18:56;;;;;;;;;;;7.30;1.00;;;;;;5077054;28;20233;-77
2023/03/04 17:21:44;;;;;;;;;;;7.20;1.00;;;;;;5072817;28;19904;-78
2023/03/04 17:24:14;;;;;;;;;;;7.20;1.00;;;;;;5076564;28;19904;-77
2023/03/04 17:26:44;;;;;;;;;;;7.10;1.00;;;;;;5075380;28;19908;-78
2023/03/04 17:29:14;;;;;;;;;;;7.20;1.00;;;;;;5063707;28;19906;-78
2023/03/04 17:31:45;;;;;;;;;;;7.10;1.00;;;;;;5062825;28;19912;-77
2023/03/04 17:34:15;;;;;;;;;;;7.10;1.00;;;;;;5076226;28;19904;-77
2023/03/04 17:39:44;;;;;;;;;;;7.10;1.00;;;;;;5071242;28;19955;-77
2023/03/04 17:42:14;;;;;;;;;;;7.00;1.00;;;;;;5063025;28;19904;-77
2023/03/04 17:44:44;;;;;;;;;;;7.10;1.00;;;;;;5073172;28;19913;-77
2023/03/04 17:47:14;;;;;;;;;;;7.10;1.00;;;;;;5067437;28;20256;-77
2023/03/04 17:49:44;;;;;;;;;;;7.10;1.00;;;;;;5075972;28;19904;-77
2023/03/04 17:52:14;;;;;;;;;;;7.10;1.00;;;;;;5076295;28;19955;-77
2023/03/04 17:54:45;;;;;;;;;;;7.10;1.00;;;;;;5075880;28;19908;-77
2023/03/04 17:57:14;;;;;;;;;;;7.10;1.00;;;;;;5075815;28;19908;-77
2023/03/04 17:59:44;;;;;;;;;;;7.10;1.00;;;;;;5075625;28;19999;-84
2023/03/04 18:02:14;;;;;;;;;;;7.00;1.00;;;;;;5057942;28;19999;-84
2023/03/04 18:05:15;;;;;;;;;;;7.00;1.00;;;;;;5045786;28;19905;-84
2023/03/04 18:10:43;;;;;;;;;;;7.00;1.00;;;;;;5075790;28;20283;-84
2023/03/04 18:13:14;;;;;;;;;;;6.90;1.00;;;;;;5057715;28;19913;-84
2023/03/04 18:15:45;;;;;;;;;;;6.90;1.00;;;;;;5058212;28;19915;-83
2023/03/04 18:18:14;;;;;;;;;;;6.90;1.00;;;;;;5073146;28;19996;-84
2023/03/04 18:20:44;;;;;;;;;;;6.90;1.00;;;;;;5075350;28;19911;-84
2023/03/04 18:23:44;;;;;;;;;;;6.90;1.00;;;;;;5057360;28;19983;-84
2023/03/04 18:26:15;;;;;;;;;;;6.90;1.00;;;;;;5076883;28;19904;-84
2023/03/04 18:28:44;;;;;;;;;;;6.90;1.00;;;;;;5056329;28;20355;-81
2023/03/04 18:31:18;;;;;;;;;;;6.90;1.00;;;;;;5070017;28;19953;-88
2023/03/04 18:33:45;;;;;;;;;;;7.00;1.00;;;;;;5057909;28;20367;-84
2023/03/04 18:36:11;;;;;;;;;;;7.00;1.00;;;;;;5048744;28;19908;-85
2023/03/04 18:38:36;;;;;;;;;;;7.00;1.00;;;;;;5052775;28;19911;-85
2023/03/04 18:41:14;;;;;;;;;;;7.00;1.00;;;;;;5056989;28;19991;-82
2023/03/04 18:43:44;;;;;;;;;;;7.10;1.00;;;;;;5057105;28;19904;-83
2023/03/04 18:46:33;;;;;;;;;;;7.00;1.00;;;;;;5074694;28;19908;-83